createdAt,value
2018-07-19T00:00:22.491Z,3.00
2018-07-19T00:05:26.215Z,3.20
2018-07-19T00:10:29.988Z,4.60
2018-07-19T00:15:33.676Z,4.00
2018-07-19T00:20:38.863Z,3.75
2018-07-19T00:25:42.786Z,2.40
2018-07-19T00:30:46.494Z,3.00
2018-07-19T00:35:50.656Z,3.00
2018-07-19T00:40:54.958Z,3.00
2018-07-19T00:45:58.681Z,3.00
2018-07-19T00:51:02.315Z,2.00
2018-07-19T00:56:06.204Z,3.75
2018-07-19T01:01:09.930Z,3.75
2018-07-19T01:06:13.910Z,4.00
2018-07-19T01:11:17.717Z,3.80
2018-07-19T01:16:22.232Z,2.50
2018-07-19T01:21:26.407Z,2.20
2018-07-19T01:26:30.140Z,3.75
2018-07-19T01:31:33.898Z,2.80
2018-07-19T01:36:37.661Z,3.60
2018-07-19T01:42:47.492Z,4.00
2018-07-19T01:47:51.213Z,4.00
2018-07-19T01:52:55.044Z,3.60
2018-07-19T01:57:58.859Z,3.60
2018-07-19T02:03:02.740Z,4.25
2018-07-19T02:08:06.464Z,3.00
2018-07-19T02:13:10.237Z,4.25
2018-07-19T02:18:14.594Z,3.60
2018-07-19T02:23:18.358Z,3.75
2018-07-19T02:28:22.158Z,5.20
2018-07-19T02:33:25.891Z,3.80
2018-07-19T02:38:29.643Z,4.00
2018-07-19T02:43:33.286Z,3.75
2018-07-19T02:48:37.140Z,4.60
2018-07-19T02:53:40.824Z,3.80
2018-07-19T02:58:44.647Z,3.00
2018-07-19T03:03:48.502Z,4.25
2018-07-19T03:08:52.444Z,4.00
2018-07-19T03:13:56.256Z,4.00
2018-07-19T03:19:00.107Z,5.00
2018-07-19T03:24:03.917Z,4.00
2018-07-19T03:29:07.827Z,4.25
2018-07-19T03:34:11.689Z,4.75
2018-07-19T03:39:15.461Z,7.00
2018-07-19T03:44:19.211Z,7.00
2018-07-19T03:49:22.907Z,7.80
2018-07-19T03:54:26.629Z,7.60
2018-07-19T03:59:30.373Z,5.25
2018-07-19T04:04:34.100Z,8.80
2018-07-19T04:09:37.791Z,5.20
2018-07-19T04:14:41.655Z,5.00
2018-07-19T04:19:45.377Z,5.25
2018-07-19T04:24:49.158Z,7.00
2018-07-19T04:29:52.955Z,6.25
2018-07-19T04:34:56.673Z,6.50
2018-07-19T04:40:00.476Z,5.75
2018-07-19T04:45:06.242Z,6.50
2018-07-19T04:50:09.954Z,5.80
2018-07-19T04:55:13.773Z,7.00
2018-07-19T05:00:17.963Z,6.40
2018-07-19T05:05:22.876Z,7.40
2018-07-19T05:10:26.590Z,6.20
2018-07-19T05:15:30.252Z,5.75
2018-07-19T05:20:33.937Z,7.20
2018-07-19T05:25:37.586Z,6.00
2018-07-19T05:30:41.542Z,6.20
2018-07-19T05:35:45.326Z,6.50
2018-07-19T05:40:49.034Z,5.75
2018-07-19T05:45:52.658Z,7.00
2018-07-19T05:50:56.475Z,8.00
2018-07-19T05:56:00.868Z,5.75
2018-07-19T06:01:04.611Z,7.00
2018-07-19T06:06:08.377Z,6.25
2018-07-19T06:11:12.204Z,7.20
2018-07-19T06:16:15.941Z,8.00
2018-07-19T06:21:20.544Z,6.60
2018-07-19T06:26:24.178Z,7.00
2018-07-19T06:31:28.001Z,5.00
2018-07-19T06:36:31.646Z,7.60
2018-07-19T06:41:35.425Z,6.00
2018-07-19T06:46:39.160Z,6.75
2018-07-19T06:51:42.895Z,5.00
2018-07-19T06:56:46.706Z,7.60
2018-07-19T07:01:50.459Z,6.50
2018-07-19T07:06:54.190Z,7.00
2018-07-19T07:11:57.845Z,6.80
2018-07-19T07:17:01.524Z,8.75
2018-07-19T07:22:05.281Z,5.75
2018-07-19T07:27:09.044Z,7.00
2018-07-19T07:32:12.789Z,8.00
2018-07-19T07:37:16.730Z,7.00
2018-07-19T07:42:20.479Z,8.00
2018-07-19T07:47:24.235Z,7.25
2018-07-19T07:52:28.009Z,8.40
2018-07-19T07:57:31.805Z,8.40
2018-07-19T08:02:35.697Z,8.00
2018-07-19T08:07:39.391Z,9.25
2018-07-19T08:12:43.183Z,8.80
2018-07-19T08:17:46.956Z,7.00
2018-07-19T08:22:50.662Z,8.00
2018-07-19T08:27:54.387Z,9.25
2018-07-19T08:32:58.198Z,9.25
2018-07-19T08:38:01.910Z,9.20
2018-07-19T08:43:05.654Z,9.75
2018-07-19T08:48:09.354Z,9.75
2018-07-19T08:53:13.038Z,9.80
2018-07-19T08:58:16.771Z,9.60
2018-07-19T09:03:21.289Z,9.75
2018-07-19T09:08:25.050Z,12.40
2018-07-19T09:13:28.698Z,11.80
2018-07-19T09:18:32.380Z,11.50
2018-07-19T09:23:36.082Z,11.60
2018-07-19T09:28:39.751Z,10.60
2018-07-19T09:33:43.440Z,11.00
2018-07-19T09:38:47.191Z,11.00
2018-07-19T09:43:51.068Z,10.00
2018-07-19T09:48:54.732Z,8.60
2018-07-19T09:53:58.418Z,9.00
2018-07-19T09:59:02.160Z,10.00
2018-07-19T10:04:05.846Z,10.60
2018-07-19T10:09:09.566Z,10.00
2018-07-19T10:14:13.310Z,10.25
2018-07-19T10:19:17.063Z,12.80
2018-07-19T10:24:20.831Z,12.20
2018-07-19T10:29:25.181Z,12.25
2018-07-19T10:34:28.903Z,11.60
2018-07-19T10:39:32.577Z,13.50
2018-07-19T10:44:36.314Z,13.25
2018-07-19T10:49:40.049Z,11.00
2018-07-19T10:54:43.826Z,11.00
2018-07-19T10:59:47.599Z,11.25
2018-07-19T11:04:51.382Z,11.25
2018-07-19T11:09:55.085Z,11.00
2018-07-19T11:14:58.697Z,11.75
2018-07-19T11:20:05.376Z,12.40
2018-07-19T11:25:09.075Z,11.80
2018-07-19T11:30:12.869Z,11.17
2018-07-19T11:35:16.599Z,10.40
2018-07-19T11:40:20.258Z,8.00
2018-07-19T11:45:24.186Z,10.00
2018-07-19T11:50:27.883Z,10.40
2018-07-19T11:55:31.623Z,10.40
2018-07-19T12:00:35.271Z,10.50
2018-07-19T12:05:38.946Z,10.60
2018-07-19T12:10:42.674Z,10.00
2018-07-19T12:15:46.318Z,9.00
2018-07-19T12:20:49.988Z,9.20
2018-07-19T12:25:53.754Z,11.25
2018-07-19T12:30:57.422Z,9.75
2018-07-19T12:36:01.134Z,10.50
2018-07-19T12:41:04.823Z,8.00
2018-07-19T12:46:08.514Z,9.50
2018-07-19T12:51:12.219Z,11.25
2018-07-19T12:56:15.991Z,8.80
2018-07-19T13:01:19.686Z,11.80
2018-07-19T13:06:23.406Z,10.25
2018-07-19T13:11:27.110Z,9.75
2018-07-19T13:16:30.914Z,8.80
2018-07-19T13:21:34.618Z,8.60
2018-07-19T13:26:38.429Z,8.00
2018-07-19T13:31:42.075Z,8.25
2018-07-19T13:36:45.875Z,10.00
2018-07-19T13:41:49.471Z,8.00
2018-07-19T13:46:53.069Z,9.20
2018-07-19T13:51:56.842Z,8.80
2018-07-19T13:57:00.603Z,8.60
2018-07-19T14:02:04.311Z,8.00
2018-07-19T14:07:07.985Z,9.40
2018-07-19T14:12:11.819Z,8.80
2018-07-19T14:17:15.509Z,10.00
2018-07-19T14:22:19.196Z,7.75
2018-07-19T14:27:22.818Z,7.80
2018-07-19T14:32:26.450Z,8.00
2018-07-19T14:37:30.175Z,6.50
2018-07-19T14:42:35.139Z,8.50
2018-07-19T14:47:39.301Z,9.40
2018-07-19T14:52:43.394Z,7.00
2018-07-19T14:57:47.240Z,8.00
2018-07-19T15:02:50.951Z,9.00
2018-07-19T15:07:55.357Z,7.00
2018-07-19T15:12:59.328Z,6.00
2018-07-19T15:18:03.030Z,7.00
2018-07-19T15:23:06.867Z,6.50
2018-07-19T15:28:10.577Z,7.00
2018-07-19T15:33:16.336Z,7.00
2018-07-19T15:38:20.895Z,6.00
2018-07-19T15:43:25.405Z,7.50
2018-07-19T15:48:29.322Z,6.40
2018-07-19T15:53:33.691Z,6.20
2018-07-19T15:58:37.567Z,7.50
2018-07-19T16:03:41.435Z,5.00
2018-07-19T16:08:45.147Z,7.00
2018-07-19T16:13:49.142Z,6.20
2018-07-19T16:18:52.953Z,8.80
2018-07-19T16:23:56.653Z,12.00
2018-07-19T16:29:00.385Z,13.50
2018-07-19T16:34:04.183Z,14.00
2018-07-19T16:39:09.571Z,11.60
2018-07-19T16:44:13.741Z,13.75
2018-07-19T16:49:17.569Z,11.50
2018-07-19T16:54:21.244Z,9.25
2018-07-19T16:59:24.975Z,11.25
2018-07-19T17:04:28.777Z,13.00
2018-07-19T17:09:32.570Z,10.75
2018-07-19T17:14:36.287Z,10.75
2018-07-19T17:19:39.918Z,10.60
2018-07-19T17:24:43.643Z,12.25
2018-07-19T17:29:47.546Z,8.75
2018-07-19T17:34:51.287Z,11.00
2018-07-19T17:39:55.053Z,8.60
2018-07-19T17:44:58.863Z,10.50
2018-07-19T17:50:04.242Z,9.00
2018-07-19T17:55:08.286Z,8.60
2018-07-19T18:00:11.956Z,7.20
2018-07-19T18:05:15.776Z,8.20
2018-07-19T18:10:19.478Z,9.20
2018-07-19T18:15:23.358Z,8.50
2018-07-19T18:20:27.049Z,8.75
2018-07-19T18:25:30.737Z,6.80
2018-07-19T18:30:34.382Z,8.00
2018-07-19T18:35:37.989Z,7.20
2018-07-19T18:40:41.738Z,11.20
2018-07-19T18:45:45.503Z,8.75
2018-07-19T18:50:49.232Z,8.75
2018-07-19T18:55:52.983Z,8.80
2018-07-19T19:00:56.728Z,7.00
2018-07-19T19:06:00.495Z,7.50
2018-07-19T19:11:04.165Z,7.25
2018-07-19T19:16:08.147Z,6.00
2018-07-19T19:21:11.883Z,6.00
2018-07-19T19:26:15.566Z,9.00
2018-07-19T19:31:19.300Z,8.00
2018-07-19T19:36:22.983Z,6.00
2018-07-19T19:41:26.820Z,8.20
2018-07-19T19:46:30.554Z,9.00
2018-07-19T19:51:34.322Z,8.00
2018-07-19T19:56:37.946Z,8.50
2018-07-19T20:01:41.729Z,6.40
2018-07-19T20:06:45.417Z,7.00
2018-07-19T20:11:49.076Z,7.00
2018-07-19T20:16:52.735Z,9.20
2018-07-19T20:21:56.414Z,7.00
2018-07-19T20:27:00.123Z,11.00
2018-07-19T20:32:03.766Z,13.60
2018-07-19T20:37:07.446Z,14.50
2018-07-19T20:42:11.079Z,15.00
2018-07-19T20:47:15.117Z,14.80
2018-07-19T20:52:18.824Z,12.60
2018-07-19T20:57:22.528Z,12.00
2018-07-19T21:02:26.316Z,11.25
2018-07-19T21:07:30.014Z,13.25
2018-07-19T21:12:33.711Z,15.60
2018-07-19T21:17:37.402Z,15.25
2018-07-19T21:22:41.171Z,14.50
2018-07-19T21:27:44.894Z,13.00
2018-07-19T21:32:48.582Z,14.00
2018-07-19T21:37:52.295Z,12.25
2018-07-19T21:42:55.923Z,15.40
2018-07-19T21:47:59.582Z,13.50
2018-07-19T21:53:03.309Z,14.50
2018-07-19T21:58:07.066Z,14.75
2018-07-19T22:03:10.806Z,13.00
2018-07-19T22:08:14.511Z,13.75
2018-07-19T22:13:18.154Z,13.50
2018-07-19T22:18:22.689Z,14.80
2018-07-19T22:23:26.442Z,18.25
2018-07-19T22:28:30.115Z,15.80
2018-07-19T22:33:33.850Z,13.80
2018-07-19T22:38:37.700Z,13.50
2018-07-19T22:43:41.414Z,16.50
2018-07-19T22:48:45.090Z,15.25
2018-07-19T22:53:49.602Z,15.50
2018-07-19T22:58:53.302Z,15.50
2018-07-19T23:03:57.025Z,16.00
2018-07-19T23:09:00.670Z,17.00
2018-07-19T23:14:04.306Z,14.75
2018-07-19T23:19:07.958Z,15.40
2018-07-19T23:24:11.677Z,18.25
2018-07-19T23:29:15.594Z,17.00
2018-07-19T23:34:19.379Z,16.40
2018-07-19T23:39:27.601Z,17.40
2018-07-19T23:44:34.905Z,16.75
2018-07-19T23:49:38.551Z,16.25
2018-07-19T23:54:42.290Z,15.60
2018-07-19T23:59:45.982Z,17.20
